createdAt,value
2019-03-16T00:00:23.525Z,40.65
2019-03-16T00:02:56.382Z,39.98
2019-03-16T00:05:28.993Z,42.03
2019-03-16T00:08:01.926Z,42.95
2019-03-16T00:10:34.734Z,44.80
2019-03-16T00:13:07.310Z,43.87
2019-03-16T00:15:40.013Z,43.85
2019-03-16T00:18:12.639Z,39.90
2019-03-16T00:20:45.260Z,40.67
2019-03-16T00:23:17.672Z,44.03
2019-03-16T00:25:50.080Z,43.65
2019-03-16T00:28:22.585Z,43.25
2019-03-16T00:30:55.839Z,43.15
2019-03-16T00:33:28.682Z,45.28
2019-03-16T00:36:01.252Z,45.38
2019-03-16T00:38:33.957Z,40.25
2019-03-16T00:41:06.501Z,39.73
2019-03-16T00:43:39.398Z,38.90
2019-03-16T00:46:11.713Z,38.95
2019-03-16T00:48:44.164Z,36.88
2019-03-16T00:51:16.585Z,36.25
2019-03-16T00:53:49.190Z,36.30
2019-03-16T00:56:21.678Z,34.15
2019-03-16T00:58:54.086Z,34.30
2019-03-16T01:01:26.420Z,34.18
2019-03-16T01:03:59.406Z,32.95
2019-03-16T01:06:31.894Z,32.55
2019-03-16T01:09:05.499Z,32.35
2019-03-16T01:11:37.884Z,31.85
2019-03-16T01:14:11.673Z,32.67
2019-03-16T01:16:44.268Z,30.68
2019-03-16T01:19:16.958Z,30.50
2019-03-16T01:21:49.354Z,29.87
2019-03-16T01:24:21.816Z,30.23
2019-03-16T01:26:54.208Z,29.67
2019-03-16T01:29:26.861Z,31.27
2019-03-16T01:31:59.276Z,30.40
2019-03-16T01:34:31.875Z,30.00
2019-03-16T01:37:04.511Z,28.80
2019-03-16T01:39:37.327Z,29.50
2019-03-16T01:42:09.682Z,28.57
2019-03-16T01:44:42.368Z,30.65
2019-03-16T01:47:14.944Z,29.92
2019-03-16T01:49:47.393Z,30.27
2019-03-16T01:52:19.955Z,30.62
2019-03-16T01:54:53.378Z,29.35
2019-03-16T01:57:25.922Z,29.12
2019-03-16T01:59:58.636Z,27.67
2019-03-16T02:02:31.204Z,29.05
2019-03-16T02:05:04.088Z,28.38
2019-03-16T02:07:36.480Z,26.52
2019-03-16T02:10:10.784Z,28.52
2019-03-16T02:12:43.217Z,27.27
2019-03-16T02:15:15.799Z,26.60
2019-03-16T02:17:48.478Z,26.73
2019-03-16T02:20:21.062Z,28.10
2019-03-16T02:22:53.805Z,27.65
2019-03-16T02:25:27.570Z,27.55
2019-03-16T02:28:00.649Z,27.00
2019-03-16T02:30:33.076Z,30.35
2019-03-16T02:33:13.414Z,25.05
2019-03-16T02:35:39.959Z,25.75
2019-03-16T02:38:12.725Z,24.98
2019-03-16T02:40:45.316Z,26.35
2019-03-16T02:43:18.872Z,23.75
2019-03-16T02:45:51.311Z,24.12
2019-03-16T02:48:23.864Z,24.00
2019-03-16T02:50:56.732Z,22.35
2019-03-16T02:53:29.241Z,22.05
2019-03-16T02:56:02.033Z,22.80
2019-03-16T02:58:34.449Z,23.15
2019-03-16T03:01:07.409Z,21.55
2019-03-16T03:03:40.060Z,21.40
2019-03-16T03:06:12.507Z,21.85
2019-03-16T03:08:45.248Z,20.95
2019-03-16T03:11:17.765Z,21.62
2019-03-16T03:13:50.489Z,21.40
2019-03-16T03:16:22.804Z,22.15
2019-03-16T03:18:55.370Z,21.55
2019-03-16T03:21:27.829Z,20.55
2019-03-16T03:24:00.458Z,20.00
2019-03-16T03:26:33.330Z,20.37
2019-03-16T03:29:05.644Z,21.52
2019-03-16T03:31:38.355Z,20.00
2019-03-16T03:34:10.958Z,20.27
2019-03-16T03:36:43.715Z,19.75
2019-03-16T03:39:16.084Z,19.60
2019-03-16T03:41:48.594Z,19.25
2019-03-16T03:44:21.016Z,20.08
2019-03-16T03:46:54.289Z,19.25
2019-03-16T03:49:26.811Z,20.72
2019-03-16T03:51:59.417Z,19.35
2019-03-16T03:54:32.297Z,19.45
2019-03-16T03:57:04.795Z,20.68
2019-03-16T03:59:37.374Z,19.55
2019-03-16T04:02:10.145Z,19.02
2019-03-16T04:04:43.570Z,19.73
2019-03-16T04:07:19.801Z,20.35
2019-03-16T04:09:52.162Z,21.27
2019-03-16T04:12:24.637Z,20.05
2019-03-16T04:14:57.002Z,20.80
2019-03-16T04:17:29.744Z,20.82
2019-03-16T04:20:02.179Z,21.10
2019-03-16T04:22:34.812Z,20.25
2019-03-16T04:25:07.401Z,20.60
2019-03-16T04:27:39.978Z,21.25
2019-03-16T04:30:14.113Z,21.15
2019-03-16T04:32:46.658Z,20.25
2019-03-16T04:35:18.998Z,20.95
2019-03-16T04:37:52.910Z,22.00
2019-03-16T04:40:25.216Z,23.15
2019-03-16T04:42:58.043Z,20.37
2019-03-16T04:45:30.370Z,21.77
2019-03-16T04:48:03.119Z,21.75
2019-03-16T04:50:35.394Z,23.05
2019-03-16T04:53:08.122Z,23.38
2019-03-16T04:55:40.620Z,23.75
2019-03-16T04:58:14.306Z,22.48
2019-03-16T05:00:46.871Z,22.95
2019-03-16T05:03:19.838Z,22.27
2019-03-16T05:05:52.561Z,22.20
2019-03-16T05:08:25.558Z,23.02
2019-03-16T05:10:58.196Z,22.05
2019-03-16T05:13:31.111Z,22.80
2019-03-16T05:16:03.635Z,23.92
2019-03-16T05:18:36.562Z,22.93
2019-03-16T05:21:09.061Z,24.90
2019-03-16T05:23:41.534Z,23.80
2019-03-16T05:26:13.953Z,25.52
2019-03-16T05:28:46.384Z,23.77
2019-03-16T05:31:18.704Z,23.90
2019-03-16T05:33:51.119Z,27.58
2019-03-16T05:36:23.656Z,26.40
2019-03-16T05:38:56.194Z,26.35
2019-03-16T05:41:28.671Z,25.62
2019-03-16T05:44:01.423Z,27.42
2019-03-16T05:46:34.009Z,26.97
2019-03-16T05:49:06.679Z,31.33
2019-03-16T05:51:39.810Z,27.75
2019-03-16T05:54:12.511Z,28.73
2019-03-16T05:56:45.334Z,28.67
2019-03-16T05:59:17.705Z,29.57
2019-03-16T06:01:50.455Z,30.77
2019-03-16T06:04:22.936Z,29.72
2019-03-16T06:06:55.356Z,30.25
2019-03-16T06:09:27.766Z,29.95
2019-03-16T06:12:00.076Z,27.75
2019-03-16T06:14:32.906Z,27.87
2019-03-16T06:17:05.407Z,28.20
2019-03-16T06:19:37.682Z,27.70
2019-03-16T06:22:10.075Z,26.95
2019-03-16T06:24:42.744Z,28.12
2019-03-16T06:27:15.242Z,27.50
2019-03-16T06:29:47.822Z,27.05
2019-03-16T06:32:21.437Z,26.55
2019-03-16T06:34:54.075Z,27.30
2019-03-16T06:37:26.466Z,27.48
2019-03-16T06:39:59.426Z,27.52
2019-03-16T06:42:31.870Z,27.55
2019-03-16T06:45:04.471Z,28.83
2019-03-16T06:47:36.843Z,27.95
2019-03-16T06:50:11.638Z,29.27
2019-03-16T06:52:44.160Z,29.00
2019-03-16T06:55:16.920Z,27.50
2019-03-16T06:57:50.141Z,28.57
2019-03-16T07:00:22.660Z,28.77
2019-03-16T07:02:55.190Z,28.83
2019-03-16T07:05:37.720Z,28.35
2019-03-16T07:08:01.615Z,28.92
2019-03-16T07:10:35.298Z,29.77
2019-03-16T07:13:08.264Z,28.67
2019-03-16T07:15:40.627Z,27.15
2019-03-16T07:18:13.445Z,27.13
2019-03-16T07:20:46.163Z,27.42
2019-03-16T07:23:18.732Z,27.85
2019-03-16T07:25:51.244Z,27.27
2019-03-16T07:28:24.185Z,27.37
2019-03-16T07:30:57.656Z,27.40
2019-03-16T07:33:30.075Z,29.10
2019-03-16T07:36:02.722Z,29.10
2019-03-16T07:38:35.423Z,29.77
2019-03-16T07:41:07.966Z,27.90
2019-03-16T07:43:41.371Z,29.25
2019-03-16T07:46:13.947Z,28.45
2019-03-16T07:48:46.891Z,28.17
2019-03-16T07:51:19.295Z,30.40
2019-03-16T07:53:52.017Z,30.43
2019-03-16T07:56:24.499Z,29.63
2019-03-16T07:58:57.135Z,29.70
2019-03-16T08:01:29.462Z,28.77
2019-03-16T08:04:02.287Z,30.20
2019-03-16T08:06:34.725Z,29.82
2019-03-16T08:09:08.605Z,31.05
2019-03-16T08:11:41.070Z,29.82
2019-03-16T08:14:13.520Z,31.05
2019-03-16T08:16:45.847Z,29.55
2019-03-16T08:19:18.345Z,30.72
2019-03-16T08:21:50.722Z,30.75
2019-03-16T08:24:23.362Z,29.20
2019-03-16T08:26:55.833Z,30.48
2019-03-16T08:29:28.449Z,30.08
2019-03-16T08:32:00.841Z,30.97
2019-03-16T08:34:33.591Z,29.95
2019-03-16T08:37:06.253Z,31.23
2019-03-16T08:39:38.804Z,31.65
2019-03-16T08:42:12.338Z,32.55
2019-03-16T08:44:45.140Z,31.82
2019-03-16T08:47:17.743Z,32.15
2019-03-16T08:49:50.601Z,30.82
2019-03-16T08:52:22.900Z,31.87
2019-03-16T08:54:55.336Z,30.20
2019-03-16T08:57:27.783Z,30.70
2019-03-16T09:00:00.330Z,30.70
2019-03-16T09:02:33.000Z,31.40
2019-03-16T09:05:06.005Z,31.25
2019-03-16T09:07:38.489Z,30.92
2019-03-16T09:10:11.992Z,33.08
2019-03-16T09:12:54.267Z,30.97
2019-03-16T09:15:19.178Z,32.15
2019-03-16T09:17:52.067Z,33.83
2019-03-16T09:20:24.740Z,33.73
2019-03-16T09:22:57.582Z,32.33
2019-03-16T09:25:30.099Z,33.83
2019-03-16T09:28:02.836Z,34.18
2019-03-16T09:30:35.551Z,34.13
2019-03-16T09:33:08.254Z,34.05
2019-03-16T09:35:40.760Z,35.05
2019-03-16T09:38:13.520Z,34.25
2019-03-16T09:40:46.448Z,33.83
2019-03-16T09:43:20.079Z,34.38
2019-03-16T09:45:52.392Z,35.17
2019-03-16T09:48:25.128Z,34.70
2019-03-16T09:50:57.629Z,35.48
2019-03-16T09:53:30.150Z,36.00
2019-03-16T09:56:02.603Z,35.15
2019-03-16T09:58:36.143Z,33.75
2019-03-16T10:01:09.041Z,34.03
2019-03-16T10:03:41.655Z,36.00
2019-03-16T10:06:14.587Z,35.30
2019-03-16T10:08:47.351Z,36.65
2019-03-16T10:11:20.114Z,37.35
2019-03-16T10:13:52.510Z,36.75
2019-03-16T10:16:25.257Z,35.58
2019-03-16T10:18:57.920Z,36.20
2019-03-16T10:21:30.700Z,35.92
2019-03-16T10:24:03.196Z,37.78
2019-03-16T10:26:37.562Z,37.58
2019-03-16T10:29:09.702Z,39.67
2019-03-16T10:31:41.962Z,37.88
2019-03-16T10:34:14.389Z,39.23
2019-03-16T10:36:46.616Z,37.60
2019-03-16T10:39:19.679Z,38.08
2019-03-16T10:41:52.516Z,38.05
2019-03-16T10:44:25.189Z,37.55
2019-03-16T10:46:57.859Z,36.77
2019-03-16T10:49:30.158Z,38.17
2019-03-16T10:52:02.652Z,37.58
2019-03-16T10:54:35.238Z,37.15
2019-03-16T10:57:08.247Z,37.08
2019-03-16T10:59:40.835Z,38.80
2019-03-16T11:02:13.886Z,38.15
2019-03-16T11:04:47.176Z,42.48
2019-03-16T11:07:19.817Z,39.67
2019-03-16T11:09:52.534Z,39.00
2019-03-16T11:12:25.355Z,38.95
2019-03-16T11:14:58.018Z,38.70
2019-03-16T11:17:30.551Z,39.67
2019-03-16T11:20:03.128Z,40.43
2019-03-16T11:22:35.342Z,40.90
2019-03-16T11:25:09.449Z,40.70
2019-03-16T11:27:42.161Z,42.08
2019-03-16T11:30:17.061Z,41.35
2019-03-16T11:32:49.912Z,42.30
2019-03-16T11:35:22.640Z,43.10
2019-03-16T11:37:55.643Z,41.80
2019-03-16T11:40:28.575Z,42.70
2019-03-16T11:43:01.675Z,44.13
2019-03-16T11:45:34.206Z,44.65
2019-03-16T11:48:06.766Z,46.25
2019-03-16T11:50:39.370Z,45.90
2019-03-16T11:53:12.247Z,45.30
2019-03-16T11:55:44.650Z,44.42
2019-03-16T11:58:17.247Z,46.75
2019-03-16T12:00:50.006Z,45.73
2019-03-16T12:03:22.470Z,114.47
2019-03-16T12:05:54.911Z,54.98
2019-03-16T12:08:27.425Z,55.85
2019-03-16T12:11:02.239Z,53.38
2019-03-16T12:13:34.686Z,53.78
2019-03-16T12:16:07.159Z,50.85
2019-03-16T12:18:39.352Z,49.00
2019-03-16T12:21:12.201Z,47.60
2019-03-16T12:23:44.405Z,47.58
2019-03-16T12:26:16.930Z,49.93
2019-03-16T12:28:50.168Z,49.80
2019-03-16T12:31:22.718Z,50.65
2019-03-16T12:33:56.595Z,51.92
2019-03-16T12:36:29.452Z,49.03
2019-03-16T12:39:01.932Z,49.18
2019-03-16T12:41:34.653Z,47.20
2019-03-16T12:44:07.338Z,50.80
2019-03-16T12:46:40.187Z,48.38
2019-03-16T12:49:12.595Z,49.23
2019-03-16T12:51:45.070Z,48.85
2019-03-16T12:54:17.971Z,48.78
2019-03-16T12:56:50.855Z,51.40
2019-03-16T12:59:24.330Z,49.25
2019-03-16T13:01:57.068Z,49.42
2019-03-16T13:04:29.982Z,49.73
2019-03-16T13:07:02.351Z,50.00
2019-03-16T13:09:34.642Z,52.48
2019-03-16T13:12:07.142Z,51.50
2019-03-16T13:14:39.546Z,53.28
2019-03-16T13:17:12.092Z,55.88
2019-03-16T13:19:44.351Z,64.65
2019-03-16T13:22:17.151Z,57.48
2019-03-16T13:24:49.745Z,56.75
2019-03-16T13:27:21.953Z,58.23
2019-03-16T13:29:59.056Z,61.63
2019-03-16T13:32:47.096Z,60.55
2019-03-16T13:35:20.866Z,60.50
2019-03-16T13:37:53.377Z,62.03
2019-03-16T13:40:26.242Z,58.85
2019-03-16T13:42:58.917Z,58.02
2019-03-16T13:45:31.610Z,57.67
2019-03-16T13:48:04.103Z,55.08
2019-03-16T13:50:36.739Z,56.30
2019-03-16T13:53:09.191Z,55.38
2019-03-16T13:55:41.760Z,55.40
2019-03-16T13:58:15.229Z,57.35
2019-03-16T14:00:47.804Z,57.08
2019-03-16T14:03:20.304Z,55.75
2019-03-16T14:05:52.904Z,57.35
2019-03-16T14:08:25.199Z,56.45
2019-03-16T14:10:58.025Z,55.90
2019-03-16T14:13:30.636Z,55.33
2019-03-16T14:16:02.900Z,60.65
2019-03-16T14:18:35.202Z,62.33
2019-03-16T14:21:08.291Z,65.40
2019-03-16T14:23:40.414Z,63.48
2019-03-16T14:26:13.066Z,173.25
2019-03-16T14:28:45.162Z,65.65
2019-03-16T14:31:19.138Z,70.75
2019-03-16T14:33:51.724Z,86.95
2019-03-16T14:36:24.041Z,81.32
2019-03-16T14:38:56.438Z,75.12
2019-03-16T14:41:29.692Z,95.15
2019-03-16T14:44:02.491Z,95.95
2019-03-16T14:46:35.396Z,78.80
2019-03-16T14:49:08.035Z,67.75
2019-03-16T14:51:40.450Z,63.87
2019-03-16T14:54:12.909Z,62.80
2019-03-16T14:56:45.569Z,63.00
2019-03-16T14:59:18.169Z,62.17
2019-03-16T15:01:50.685Z,66.10
2019-03-16T15:04:23.742Z,63.05
2019-03-16T15:06:56.257Z,64.92
2019-03-16T15:09:28.964Z,65.35
2019-03-16T15:12:01.607Z,60.15
2019-03-16T15:14:34.209Z,61.25
2019-03-16T15:17:06.738Z,70.95
2019-03-16T15:19:38.861Z,88.58
2019-03-16T15:22:12.270Z,146.93
2019-03-16T15:24:44.652Z,64.22
2019-03-16T15:27:17.237Z,59.90
2019-03-16T15:29:49.699Z,60.60
2019-03-16T15:32:34.100Z,61.05
2019-03-16T15:35:08.109Z,63.13
2019-03-16T15:37:40.444Z,61.88
2019-03-16T15:40:15.603Z,60.75
2019-03-16T15:42:50.280Z,62.85
2019-03-16T15:45:24.545Z,62.17
2019-03-16T15:47:57.331Z,60.48
2019-03-16T15:50:29.641Z,60.33
2019-03-16T15:53:02.174Z,62.17
2019-03-16T15:55:34.374Z,59.95
2019-03-16T15:58:08.600Z,60.58
2019-03-16T16:00:41.032Z,61.53
2019-03-16T16:03:13.418Z,67.15
2019-03-16T16:05:46.010Z,64.22
2019-03-16T16:08:19.388Z,64.75
2019-03-16T16:11:00.858Z,79.00
2019-03-16T16:13:26.546Z,68.17
2019-03-16T16:15:59.062Z,67.45
2019-03-16T16:18:31.769Z,67.00
2019-03-16T16:21:04.247Z,64.85
2019-03-16T16:23:36.487Z,62.95
2019-03-16T16:26:09.024Z,64.55
2019-03-16T16:28:41.343Z,65.20
2019-03-16T16:31:16.613Z,65.28
2019-03-16T16:33:47.869Z,65.75
2019-03-16T16:36:21.069Z,64.97
2019-03-16T16:38:53.671Z,65.10
2019-03-16T16:41:26.412Z,67.42
2019-03-16T16:43:58.923Z,65.30
2019-03-16T16:46:31.592Z,66.00
2019-03-16T16:49:03.991Z,66.55
2019-03-16T16:51:36.597Z,65.92
2019-03-16T16:54:09.152Z,66.05
2019-03-16T16:56:41.835Z,68.57
2019-03-16T16:59:14.400Z,66.95
2019-03-16T17:01:47.302Z,69.30
2019-03-16T17:04:20.983Z,65.08
2019-03-16T17:06:53.604Z,301.75
2019-03-16T17:09:26.013Z,70.65
2019-03-16T17:11:59.222Z,68.22
2019-03-16T17:14:31.818Z,69.05
2019-03-16T17:17:04.645Z,66.90
2019-03-16T17:19:37.080Z,67.12
2019-03-16T17:22:10.073Z,71.15
2019-03-16T17:24:42.618Z,72.53
2019-03-16T17:27:15.083Z,70.87
2019-03-16T17:29:47.487Z,67.55
2019-03-16T17:32:19.923Z,69.50
2019-03-16T17:34:52.258Z,69.53
2019-03-16T17:37:25.044Z,70.75
2019-03-16T17:39:58.858Z,69.67
2019-03-16T17:42:31.357Z,69.32
2019-03-16T17:45:03.761Z,70.37
2019-03-16T17:47:36.213Z,71.00
2019-03-16T17:50:10.954Z,73.15
2019-03-16T17:52:43.821Z,72.58
2019-03-16T17:55:17.104Z,72.12
2019-03-16T17:57:49.706Z,71.28
2019-03-16T18:00:22.756Z,70.25
2019-03-16T18:02:55.362Z,72.82
2019-03-16T18:05:27.982Z,72.40
2019-03-16T18:08:00.776Z,73.62
2019-03-16T18:10:33.299Z,69.97
2019-03-16T18:13:05.941Z,76.45
2019-03-16T18:15:39.725Z,78.12
2019-03-16T18:18:12.335Z,74.47
2019-03-16T18:20:44.697Z,76.70
2019-03-16T18:23:17.406Z,78.02
2019-03-16T18:25:49.887Z,74.55
2019-03-16T18:28:22.659Z,74.27
2019-03-16T18:30:55.088Z,73.60
2019-03-16T18:33:27.753Z,73.95
2019-03-16T18:36:00.369Z,74.50
2019-03-16T18:38:33.121Z,75.62
2019-03-16T18:41:07.129Z,76.95
2019-03-16T18:43:40.735Z,75.03
2019-03-16T18:46:13.590Z,78.52
2019-03-16T18:48:46.225Z,78.60
2019-03-16T18:51:18.957Z,82.27
2019-03-16T18:53:51.993Z,80.55
2019-03-16T18:56:24.603Z,84.45
2019-03-16T18:58:57.193Z,83.60
2019-03-16T19:01:29.620Z,83.27
2019-03-16T19:04:21.146Z,86.37
2019-03-16T19:07:05.813Z,84.60
2019-03-16T19:09:38.385Z,83.92
2019-03-16T19:12:11.084Z,85.60
2019-03-16T19:14:43.497Z,85.72
2019-03-16T19:17:16.331Z,84.47
2019-03-16T19:19:49.126Z,84.80
2019-03-16T19:22:21.672Z,86.70
2019-03-16T19:24:54.451Z,87.17
2019-03-16T19:27:27.161Z,84.55
2019-03-16T19:29:59.686Z,85.77
2019-03-16T19:32:33.959Z,86.75
2019-03-16T19:35:07.108Z,86.80
2019-03-16T19:37:39.630Z,85.15
2019-03-16T19:40:14.776Z,88.15
2019-03-16T19:42:47.409Z,89.90
2019-03-16T19:45:20.648Z,87.30
2019-03-16T19:47:52.974Z,85.42
2019-03-16T19:50:25.936Z,88.20
2019-03-16T19:52:58.437Z,88.30
2019-03-16T19:55:31.056Z,85.70
2019-03-16T19:58:03.589Z,86.97
2019-03-16T20:00:36.022Z,87.57
2019-03-16T20:03:08.471Z,87.82
2019-03-16T20:05:40.965Z,86.90
2019-03-16T20:08:13.527Z,88.35
2019-03-16T20:10:46.136Z,90.28
2019-03-16T20:13:18.705Z,87.95
2019-03-16T20:15:51.552Z,95.12
2019-03-16T20:18:23.887Z,90.45
2019-03-16T20:20:56.449Z,92.88
2019-03-16T20:23:28.905Z,90.92
2019-03-16T20:26:01.814Z,96.72
2019-03-16T20:28:34.258Z,96.25
2019-03-16T20:31:06.921Z,97.40
2019-03-16T20:33:40.050Z,95.77
2019-03-16T20:36:12.499Z,93.07
2019-03-16T20:38:45.045Z,95.95
2019-03-16T20:41:17.725Z,96.65
2019-03-16T20:43:50.268Z,93.75
2019-03-16T20:46:22.993Z,93.30
2019-03-16T20:48:55.611Z,89.97
2019-03-16T20:51:28.303Z,86.47
2019-03-16T20:54:00.605Z,85.30
2019-03-16T20:56:33.381Z,85.95
2019-03-16T20:59:05.791Z,83.33
2019-03-16T21:01:38.174Z,83.87
2019-03-16T21:04:10.879Z,83.55
2019-03-16T21:06:43.213Z,80.28
2019-03-16T21:09:15.724Z,79.75
2019-03-16T21:11:49.528Z,77.60
2019-03-16T21:14:22.236Z,78.35
2019-03-16T21:16:54.940Z,77.37
2019-03-16T21:19:27.343Z,76.87
2019-03-16T21:21:59.889Z,75.40
2019-03-16T21:24:32.884Z,76.92
2019-03-16T21:27:05.564Z,76.53
2019-03-16T21:29:37.840Z,73.50
2019-03-16T21:32:10.788Z,71.62
2019-03-16T21:34:43.062Z,73.45
2019-03-16T21:37:15.668Z,73.45
2019-03-16T21:39:48.172Z,77.75
2019-03-16T21:42:20.853Z,73.83
2019-03-16T21:44:53.167Z,73.25
2019-03-16T21:47:25.902Z,75.47
2019-03-16T21:49:58.483Z,73.85
2019-03-16T21:52:31.072Z,72.47
2019-03-16T21:55:04.776Z,71.42
2019-03-16T21:57:37.611Z,70.28
2019-03-16T22:00:12.213Z,78.25
2019-03-16T22:02:45.123Z,82.88
2019-03-16T22:05:17.617Z,77.67
2019-03-16T22:07:50.454Z,78.92
2019-03-16T22:10:23.045Z,73.67
2019-03-16T22:12:56.037Z,73.40
2019-03-16T22:15:28.664Z,69.62
2019-03-16T22:18:01.329Z,70.85
2019-03-16T22:20:46.161Z,66.92
2019-03-16T22:23:18.898Z,69.47
2019-03-16T22:25:51.661Z,68.30
2019-03-16T22:28:24.373Z,70.35
2019-03-16T22:30:57.239Z,70.67
2019-03-16T22:33:29.659Z,66.55
2019-03-16T22:36:02.062Z,67.85
2019-03-16T22:38:34.728Z,63.83
2019-03-16T22:41:07.335Z,65.00
2019-03-16T22:43:40.051Z,66.10
2019-03-16T22:46:12.359Z,66.37
2019-03-16T22:48:45.637Z,68.25
2019-03-16T22:51:17.993Z,67.85
2019-03-16T22:53:50.722Z,65.78
2019-03-16T22:56:23.120Z,66.25
2019-03-16T22:58:55.889Z,65.40
2019-03-16T23:01:28.570Z,63.40
2019-03-16T23:04:06.759Z,65.57
2019-03-16T23:06:34.694Z,61.00
2019-03-16T23:09:08.666Z,63.87
2019-03-16T23:11:41.258Z,62.58
2019-03-16T23:14:13.987Z,62.27
2019-03-16T23:16:46.514Z,60.73
2019-03-16T23:19:19.128Z,64.37
2019-03-16T23:21:52.049Z,63.60
2019-03-16T23:24:24.550Z,65.12
2019-03-16T23:26:57.571Z,63.17
2019-03-16T23:29:30.928Z,62.25
2019-03-16T23:32:03.376Z,61.08
2019-03-16T23:34:36.241Z,61.40
2019-03-16T23:37:08.759Z,61.53
2019-03-16T23:39:41.368Z,59.08
2019-03-16T23:42:14.284Z,60.67
2019-03-16T23:44:46.868Z,59.73
2019-03-16T23:47:19.398Z,60.88
2019-03-16T23:49:51.757Z,61.35
2019-03-16T23:52:24.138Z,61.13
2019-03-16T23:54:56.732Z,62.30
2019-03-16T23:57:29.247Z,60.08
